Time;durP1;ratioP1;P1;durP2;ratioP2;P2;SDS_P1;SDS_P2;PMS_P1;PMS_P2;Temp;Humidity;BMP_temperature;BMP_pressure;BME280_temperature;BME280_humidity;BME280_pressure;Samples;Min_cycle;Max_cycle;Signal;HPM_P1;HPM_P2
2023/04/03 00:02:12;;;;;;;2.10;1.30;;;9.10;33.20;;;;;;4997858;28;20213;-71
2023/04/03 00:04:38;;;;;;;2.10;1.20;;;8.80;34.70;;;;;;4970713;28;20219;-72
2023/04/03 00:07:04;;;;;;;2.10;1.30;;;9.10;34.60;;;;;;4989302;28;20182;-71
2023/04/03 00:09:29;;;;;;;1.93;1.10;;;9.40;33.00;;;;;;4974857;28;20205;-72
2023/04/03 00:11:55;;;;;;;4.10;2.07;;;9.00;33.40;;;;;;4985524;28;20492;-71
2023/04/03 00:14:21;;;;;;;2.00;1.20;;;9.20;33.80;;;;;;4991842;28;20653;-69
2023/04/03 00:16:46;;;;;;;2.00;1.20;;;9.00;33.80;;;;;;4983707;28;20178;-70
2023/04/03 00:19:12;;;;;;;2.10;1.20;;;9.10;33.60;;;;;;4990479;28;20178;-71
2023/04/03 00:21:38;;;;;;;2.00;1.20;;;9.20;34.10;;;;;;4982365;28;20607;-71
2023/04/03 00:24:04;;;;;;;2.00;1.27;;;9.00;33.40;;;;;;4994404;28;20611;-71
2023/04/03 00:26:30;;;;;;;1.90;1.00;;;9.00;34.30;;;;;;4992085;28;20184;-71
2023/04/03 00:28:56;;;;;;;2.00;1.20;;;9.20;34.50;;;;;;4990600;28;20424;-71
2023/04/03 00:31:21;;;;;;;2.00;1.20;;;9.50;33.40;;;;;;4990183;28;20183;-71
2023/04/03 00:33:47;;;;;;;2.00;1.10;;;9.60;33.00;;;;;;4978733;28;20194;-71
2023/04/03 00:36:13;;;;;;;2.10;1.20;;;9.60;33.00;;;;;;4991781;28;20181;-71
2023/04/03 00:38:40;;;;;;;2.10;1.30;;;9.80;33.10;;;;;;4974298;28;20189;-71
2023/04/03 00:41:06;;;;;;;2.38;1.48;;;9.80;33.10;;;;;;4983937;28;20239;-71
2023/04/03 00:43:32;;;;;;;1.92;1.10;;;9.80;32.80;;;;;;4988753;28;20676;-72
2023/04/03 00:45:59;;;;;;;2.00;1.20;;;9.50;34.40;;;;;;4994036;28;20190;-71
2023/04/03 00:48:41;;;;;;;2.30;1.50;;;9.00;32.80;;;;;;4992136;28;20757;-71
2023/04/03 00:51:10;;;;;;;2.13;1.25;;;8.70;34.40;;;;;;4990206;28;20539;-71
2023/04/03 00:53:44;;;;;;;2.15;1.33;;;8.60;35.30;;;;;;4981537;28;20233;-71
2023/04/03 00:56:14;;;;;;;2.00;1.27;;;9.00;36.00;;;;;;4994364;28;20253;-71
2023/04/03 00:58:50;;;;;;;2.00;1.30;;;9.20;34.10;;;;;;4991024;28;20174;-72
2023/04/03 01:01:21;;;;;;;1.95;1.20;;;9.40;33.00;;;;;;4990281;28;20182;-71
2023/04/03 01:03:47;;;;;;;2.08;1.27;;;9.40;33.70;;;;;;4983327;28;20221;-71
2023/04/03 01:06:16;;;;;;;2.30;1.30;;;9.50;33.30;;;;;;4994149;28;20180;-71
2023/04/03 01:08:41;;;;;;;2.00;1.20;;;9.60;33.00;;;;;;4985032;28;20209;-71
2023/04/03 01:11:07;;;;;;;2.30;1.50;;;9.60;33.00;;;;;;4991601;28;20182;-71
2023/04/03 01:13:33;;;;;;;2.00;1.20;;;9.60;33.00;;;;;;4989023;28;20353;-71
2023/04/03 01:16:04;;;;;;;2.00;1.20;;;9.60;32.70;;;;;;4982634;28;20206;-69
2023/04/03 01:18:31;;;;;;;2.00;1.10;;;9.60;33.00;;;;;;4991566;28;20373;-71
2023/04/03 01:21:24;;;;;;;2.20;1.33;;;9.80;33.20;;;;;;4991747;28;20261;-71
2023/04/03 01:23:50;;;;;;;2.00;1.20;;;9.40;32.80;;;;;;4984505;28;20229;-69
2023/04/03 01:26:16;;;;;;;2.00;1.27;;;9.30;32.70;;;;;;4984404;28;20218;-71
2023/04/03 01:28:41;;;;;;;2.03;1.20;;;9.30;32.70;;;;;;4965992;28;20182;-71
2023/04/03 01:31:28;;;;;;;2.40;1.40;;;9.10;35.10;;;;;;4991588;28;20186;-71
2023/04/03 01:33:55;;;;;;;2.00;1.30;;;9.00;33.60;;;;;;4990226;28;20562;-71
2023/04/03 01:36:28;;;;;;;2.30;1.42;;;9.00;33.10;;;;;;4990741;28;20182;-70
2023/04/03 01:38:54;;;;;;;2.10;1.20;;;8.70;34.30;;;;;;4975633;28;20590;-69
2023/04/03 01:41:20;;;;;;;2.00;1.25;;;8.90;35.40;;;;;;4994895;28;20170;-71
2023/04/03 01:43:47;;;;;;;2.10;1.30;;;9.20;33.10;;;;;;4976267;28;20317;-71
2023/04/03 01:46:13;;;;;;;2.00;1.27;;;9.10;33.30;;;;;;4985075;28;20186;-70
2023/04/03 01:48:39;;;;;;;1.98;1.20;;;9.00;33.90;;;;;;5003654;28;20209;-71
2023/04/03 01:51:05;;;;;;;2.00;1.30;;;8.90;33.40;;;;;;4992622;28;20603;-71
2023/04/03 01:53:31;;;;;;;2.10;1.27;;;9.00;33.90;;;;;;4994376;28;20527;-70
2023/04/03 01:55:56;;;;;;;2.00;1.20;;;9.00;34.10;;;;;;4988648;28;20194;-71
2023/04/03 01:58:22;;;;;;;2.00;1.20;;;9.20;34.40;;;;;;4985602;28;20349;-72
2023/04/03 02:00:48;;;;;;;2.00;1.20;;;8.90;32.90;;;;;;4994921;28;20221;-71
2023/04/03 02:03:14;;;;;;;1.90;1.20;;;8.80;34.50;;;;;;4982554;28;20279;-70
2023/04/03 02:05:40;;;;;;;2.10;1.20;;;8.50;34.70;;;;;;4990203;28;20183;-71
2023/04/03 02:08:06;;;;;;;2.00;1.20;;;8.60;34.60;;;;;;4988420;28;20186;-71
2023/04/03 02:10:32;;;;;;;2.20;1.40;;;8.80;34.20;;;;;;4974549;28;20186;-71
2023/04/03 02:12:57;;;;;;;2.23;1.50;;;8.80;32.80;;;;;;4982320;28;20462;-70
2023/04/03 02:15:23;;;;;;;2.17;1.37;;;8.70;33.80;;;;;;4994040;28;20186;-67
2023/04/03 02:17:49;;;;;;;2.10;1.30;;;8.50;34.90;;;;;;4985820;28;20181;-71
2023/04/03 02:20:14;;;;;;;2.00;1.20;;;8.60;35.20;;;;;;4999295;28;20185;-71
2023/04/03 02:22:40;;;;;;;2.10;1.30;;;9.00;34.00;;;;;;4994009;28;20209;-71
2023/04/03 02:25:06;;;;;;;1.90;1.10;;;8.70;33.90;;;;;;4994481;28;20190;-70
2023/04/03 02:27:32;;;;;;;2.10;1.20;;;8.90;34.20;;;;;;4992884;28;20200;-69
2023/04/03 02:29:57;;;;;;;1.90;1.20;;;9.00;33.60;;;;;;4993359;28;20529;-71
2023/04/03 02:32:23;;;;;;;2.00;1.20;;;9.20;32.60;;;;;;4993892;28;20355;-71
2023/04/03 02:34:48;;;;;;;2.17;1.40;;;8.90;33.10;;;;;;4996162;28;20189;-71
2023/04/03 02:37:14;;;;;;;2.00;1.20;;;8.70;33.70;;;;;;4994385;28;20244;-71
2023/04/03 02:39:40;;;;;;;2.00;1.20;;;8.80;35.00;;;;;;4993817;28;20174;-70
2023/04/03 02:42:07;;;;;;;2.13;1.23;;;8.70;34.40;;;;;;4993811;28;20479;-71
2023/04/03 02:44:32;;;;;;;2.00;1.20;;;8.60;33.50;;;;;;4993783;28;20225;-71
2023/04/03 02:46:58;;;;;;;2.00;1.20;;;8.50;34.50;;;;;;4992323;28;20182;-71
2023/04/03 02:49:23;;;;;;;2.20;1.40;;;8.30;33.60;;;;;;4993353;28;20182;-71
2023/04/03 02:51:50;;;;;;;2.00;1.10;;;8.50;34.80;;;;;;4995365;28;20568;-71
2023/04/03 02:54:16;;;;;;;2.10;1.27;;;8.70;34.70;;;;;;4978272;28;20180;-70
2023/04/03 02:56:42;;;;;;;2.00;1.10;;;9.00;33.50;;;;;;4994194;28;20258;-72
2023/04/03 02:59:07;;;;;;;2.00;1.10;;;8.80;33.20;;;;;;4986531;28;20178;-72
2023/04/03 03:01:33;;;;;;;2.00;1.20;;;8.80;32.80;;;;;;4992097;28;20290;-71
2023/04/03 03:04:00;;;;;;;2.10;1.30;;;8.90;33.20;;;;;;4993097;28;20222;-69
2023/04/03 03:06:26;;;;;;;2.10;1.40;;;8.90;32.40;;;;;;4993671;28;20178;-69
2023/04/03 03:08:52;;;;;;;2.10;1.20;;;9.00;32.60;;;;;;4992849;28;20170;-71
2023/04/03 03:11:18;;;;;;;2.93;1.67;;;8.70;32.30;;;;;;4996040;28;20223;-71
2023/04/03 03:13:43;;;;;;;2.10;1.30;;;8.50;33.60;;;;;;4974770;28;20209;-71
2023/04/03 03:16:09;;;;;;;2.00;1.20;;;8.70;32.60;;;;;;4993870;28;20437;-70
2023/04/03 03:18:35;;;;;;;2.07;1.30;;;8.80;33.00;;;;;;4991994;28;20174;-71
2023/04/03 03:21:02;;;;;;;8.60;2.80;;;8.70;34.00;;;;;;4991691;28;20182;-71
2023/04/03 03:23:29;;;;;;;2.00;1.20;;;8.40;32.90;;;;;;4993056;28;20190;-70
2023/04/03 03:25:59;;;;;;;2.00;1.20;;;8.60;33.00;;;;;;4993042;28;20198;-71
2023/04/03 03:28:25;;;;;;;2.30;1.40;;;8.70;32.20;;;;;;4992455;28;20178;-71
2023/04/03 03:30:51;;;;;;;2.00;1.20;;;8.80;32.60;;;;;;4983651;28;20861;-71
2023/04/03 03:33:18;;;;;;;2.00;1.20;;;9.00;33.20;;;;;;4992884;28;20642;-71
2023/04/03 03:35:44;;;;;;;2.10;1.40;;;8.90;32.40;;;;;;4995505;28;20453;-72
2023/04/03 03:38:09;;;;;;;1.95;1.10;;;8.90;32.40;;;;;;4994061;28;20217;-71
2023/04/03 03:40:35;;;;;;;2.40;1.30;;;8.90;33.40;;;;;;4984004;28;20619;-71
2023/04/03 03:43:01;;;;;;;1.90;1.10;;;8.80;33.30;;;;;;4992657;28;20213;-71
2023/04/03 03:45:26;;;;;;;1.90;1.20;;;8.80;32.30;;;;;;4992788;28;20592;-71
2023/04/03 03:47:52;;;;;;;2.03;1.17;;;8.80;33.90;;;;;;4991962;28;20200;-70
2023/04/03 03:50:18;;;;;;;2.20;1.50;;;8.80;32.60;;;;;;4983898;28;20413;-70
2023/04/03 03:52:44;;;;;;;2.07;1.33;;;8.70;32.60;;;;;;4999752;28;20212;-70
2023/04/03 03:55:10;;;;;;;2.40;1.58;;;8.60;33.00;;;;;;4992667;28;20680;-70
2023/04/03 03:57:36;;;;;;;2.00;1.20;;;8.70;33.60;;;;;;4992719;28;20182;-68
2023/04/03 04:00:03;;;;;;;2.00;1.20;;;9.10;32.10;;;;;;4994422;28;20455;-70
2023/04/03 04:02:28;;;;;;;2.10;1.30;;;8.70;32.30;;;;;;4993813;28;20465;-67
2023/04/03 04:04:54;;;;;;;2.10;1.30;;;8.60;33.30;;;;;;4991274;28;20244;-70
2023/04/03 04:07:20;;;;;;;2.00;1.20;;;8.80;32.30;;;;;;4984380;28;20182;-70
2023/04/03 04:09:45;;;;;;;2.00;1.20;;;8.70;32.30;;;;;;4992528;28;20190;-68
2023/04/03 04:12:11;;;;;;;2.27;1.60;;;8.70;33.00;;;;;;4992378;28;20263;-70
2023/04/03 04:14:36;;;;;;;2.10;1.30;;;8.80;32.70;;;;;;4992226;28;20174;-68
2023/04/03 04:17:02;;;;;;;2.00;1.20;;;8.80;33.50;;;;;;4983316;28;20178;-71
2023/04/03 04:19:28;;;;;;;2.00;1.30;;;8.80;33.40;;;;;;4989708;28;20182;-70
2023/04/03 04:21:54;;;;;;;1.95;1.10;;;8.90;32.40;;;;;;4986283;28;20178;-70
2023/04/03 04:24:19;;;;;;;2.10;1.37;;;8.60;32.80;;;;;;4992854;28;20599;-70
2023/04/03 04:26:45;;;;;;;2.10;1.30;;;8.50;33.70;;;;;;4991877;28;20241;-70
2023/04/03 04:29:11;;;;;;;2.00;1.20;;;8.80;32.80;;;;;;4993124;28;20245;-70
2023/04/03 04:31:36;;;;;;;2.00;1.20;;;9.10;32.50;;;;;;4983472;28;20182;-70
2023/04/03 04:34:02;;;;;;;2.57;1.50;;;9.20;31.00;;;;;;4991994;28;20728;-70
2023/04/03 04:36:28;;;;;;;2.03;1.20;;;8.90;31.40;;;;;;4991966;28;20544;-70
2023/04/03 04:38:53;;;;;;;2.10;1.30;;;8.90;31.30;;;;;;4992095;28;20170;-68
2023/04/03 04:41:22;;;;;;;2.10;1.27;;;8.80;32.30;;;;;;4990483;28;20649;-70
2023/04/03 04:43:49;;;;;;;2.10;1.40;;;8.70;31.40;;;;;;4986923;28;20201;-70
2023/04/03 04:46:15;;;;;;;2.35;1.58;;;8.80;31.60;;;;;;4991827;28;20232;-70
2023/04/03 04:48:41;;;;;;;2.20;1.30;;;8.70;31.30;;;;;;4982878;28;20182;-68
2023/04/03 04:51:06;;;;;;;2.00;1.10;;;8.90;32.40;;;;;;4990434;28;20436;-71
2023/04/03 04:53:32;;;;;;;2.00;1.17;;;8.80;31.70;;;;;;4992018;28;20556;-66
2023/04/03 04:55:58;;;;;;;2.00;1.20;;;8.90;30.90;;;;;;4990699;28;20436;-66
2023/04/03 04:58:24;;;;;;;2.10;1.23;;;9.00;32.40;;;;;;4989936;28;20443;-69
2023/04/03 05:00:49;;;;;;;2.10;1.30;;;9.10;30.10;;;;;;4983158;28;20257;-66
2023/04/03 05:03:15;;;;;;;2.10;1.33;;;9.00;30.00;;;;;;4965300;28;20582;-66
2023/04/03 05:05:41;;;;;;;2.50;1.53;;;8.80;30.40;;;;;;4979127;28;20180;-67
2023/04/03 05:08:08;;;;;;;2.10;1.30;;;8.90;29.90;;;;;;4987091;28;20185;-67
2023/04/03 05:10:34;;;;;;;2.05;1.27;;;8.50;30.90;;;;;;4991063;28;20195;-67
2023/04/03 05:12:59;;;;;;;2.20;1.30;;;8.10;31.70;;;;;;4995112;28;20213;-67
2023/04/03 05:15:25;;;;;;;2.20;1.37;;;8.30;31.40;;;;;;4995639;28;20491;-70
2023/04/03 05:17:50;;;;;;;2.00;1.20;;;8.60;30.40;;;;;;4993733;28;20190;-69
2023/04/03 05:20:16;;;;;;;3.03;1.83;;;8.60;30.90;;;;;;4993542;28;20214;-71
2023/04/03 05:22:42;;;;;;;2.10;1.30;;;8.90;32.40;;;;;;4994199;28;20280;-67
2023/04/03 05:25:08;;;;;;;1.97;1.20;;;8.70;31.10;;;;;;4994410;28;20908;-68
2023/04/03 05:27:34;;;;;;;2.20;1.50;;;8.40;31.00;;;;;;4993546;28;20182;-67
2023/04/03 05:30:00;;;;;;;2.10;1.30;;;8.60;32.10;;;;;;4994391;28;20185;-67
2023/04/03 05:32:27;;;;;;;2.10;1.30;;;8.30;31.30;;;;;;4976578;28;20476;-71
2023/04/03 05:34:53;;;;;;;2.05;1.30;;;8.40;31.00;;;;;;4996308;28;20650;-70
2023/04/03 05:37:19;;;;;;;1.90;1.10;;;8.60;31.30;;;;;;4994006;28;20190;-67
2023/04/03 05:39:46;;;;;;;2.00;1.20;;;8.70;30.40;;;;;;4993710;28;20519;-68
2023/04/03 05:42:12;;;;;;;2.00;1.20;;;8.90;31.00;;;;;;4995219;28;20205;-68
2023/04/03 05:44:38;;;;;;;2.00;1.20;;;8.90;28.70;;;;;;4994644;28;20171;-68
2023/04/03 05:47:04;;;;;;;2.00;1.30;;;8.60;28.60;;;;;;4994019;28;20206;-71
2023/04/03 05:49:31;;;;;;;2.00;1.30;;;8.70;28.50;;;;;;4995112;28;20281;-67
2023/04/03 05:51:57;;;;;;;1.90;1.10;;;8.70;28.60;;;;;;4997098;28;20213;-66
2023/04/03 05:54:25;;;;;;;2.30;1.40;;;8.90;29.40;;;;;;4994624;28;20571;-67
2023/04/03 05:56:51;;;;;;;1.90;1.10;;;9.00;28.60;;;;;;4993045;28;20231;-70
2023/04/03 05:59:18;;;;;;;1.92;1.10;;;9.00;27.40;;;;;;4994857;28;20181;-71
2023/04/03 06:01:44;;;;;;;1.92;1.20;;;9.10;27.40;;;;;;4994950;28;20179;-66
2023/04/03 06:04:10;;;;;;;2.00;1.30;;;9.20;27.00;;;;;;4992198;28;20261;-70
2023/04/03 06:06:54;;;;;;;2.28;1.42;;;9.00;27.60;;;;;;4990931;28;20662;-69
2023/04/03 06:09:21;;;;;;;2.08;1.25;;;9.20;27.60;;;;;;4992325;28;20182;-68
2023/04/03 06:11:47;;;;;;;2.00;1.20;;;9.20;27.40;;;;;;4994578;28;20173;-65
2023/04/03 06:14:13;;;;;;;1.90;1.10;;;9.10;28.50;;;;;;4993032;28;20712;-65
2023/04/03 06:16:39;;;;;;;1.90;1.20;;;9.30;27.80;;;;;;4992829;28;20182;-66
2023/04/03 06:19:06;;;;;;;2.00;1.30;;;9.50;25.90;;;;;;4991750;28;20654;-66
2023/04/03 06:21:32;;;;;;;2.00;1.20;;;9.40;26.90;;;;;;4993112;28;20524;-69
2023/04/03 06:23:58;;;;;;;1.90;1.20;;;9.60;27.00;;;;;;4992904;28;20205;-70
2023/04/03 06:26:24;;;;;;;2.30;1.60;;;9.40;28.00;;;;;;4994060;28;20829;-66
2023/04/03 06:28:50;;;;;;;2.00;1.20;;;9.50;28.10;;;;;;4986819;28;20196;-66
2023/04/03 06:31:16;;;;;;;2.00;1.30;;;9.40;27.50;;;;;;4992215;28;20183;-70
2023/04/03 06:33:42;;;;;;;2.10;1.50;;;9.00;27.20;;;;;;4990989;28;20206;-71
2023/04/03 06:36:10;;;;;;;1.90;1.13;;;9.20;27.40;;;;;;4975662;28;20170;-67
2023/04/03 06:38:35;;;;;;;2.00;1.20;;;9.20;27.90;;;;;;4992163;28;21556;-71
2023/04/03 06:41:01;;;;;;;1.97;1.20;;;9.50;27.60;;;;;;4992880;28;20193;-67
2023/04/03 06:43:27;;;;;;;1.80;1.10;;;9.40;26.70;;;;;;4992449;28;20216;-69
2023/04/03 06:45:53;;;;;;;2.10;1.30;;;9.20;27.40;;;;;;4992094;28;20192;-67
2023/04/03 06:48:19;;;;;;;2.03;1.30;;;9.10;27.20;;;;;;4990829;28;20219;-68
2023/04/03 06:50:45;;;;;;;1.97;1.10;;;8.90;27.60;;;;;;4992441;28;20222;-69
2023/04/03 06:53:11;;;;;;;2.00;1.20;;;9.00;28.50;;;;;;4990007;28;20244;-69
2023/04/03 06:55:37;;;;;;;2.03;1.30;;;9.00;27.80;;;;;;4991873;28;20154;-69
2023/04/03 06:58:03;;;;;;;1.90;1.10;;;9.00;27.80;;;;;;4990433;28;20188;-71
2023/04/03 07:00:30;;;;;;;2.42;1.75;;;8.90;28.00;;;;;;4988685;28;20179;-71
2023/04/03 07:02:57;;;;;;;2.13;1.40;;;8.60;29.60;;;;;;4987675;28;20224;-68
2023/04/03 07:05:23;;;;;;;2.40;1.60;;;8.90;28.10;;;;;;4986817;28;20267;-69
2023/04/03 07:07:50;;;;;;;2.00;1.25;;;9.10;28.20;;;;;;4985820;28;20228;-66
2023/04/03 07:10:16;;;;;;;1.90;1.20;;;9.10;28.10;;;;;;4985981;28;20202;-69
2023/04/03 07:12:42;;;;;;;2.10;1.30;;;9.40;27.10;;;;;;4982330;28;20229;-69
2023/04/03 07:15:08;;;;;;;1.90;1.13;;;9.70;27.60;;;;;;4986053;28;20181;-76
2023/04/03 07:17:35;;;;;;;1.98;1.20;;;9.90;28.70;;;;;;4985284;28;21044;-75
2023/04/03 07:20:01;;;;;;;2.00;1.20;;;9.80;27.60;;;;;;4991894;28;20198;-76
2023/04/03 07:22:27;;;;;;;1.88;1.10;;;9.80;26.70;;;;;;4989638;28;20280;-75
2023/04/03 07:24:53;;;;;;;2.00;1.27;;;10.00;25.50;;;;;;4990495;28;20261;-77
2023/04/03 07:27:19;;;;;;;2.00;1.30;;;9.90;27.30;;;;;;4991498;28;20183;-75
2023/04/03 07:29:47;;;;;;;2.00;1.20;;;9.80;27.00;;;;;;4988616;28;20448;-75
2023/04/03 07:32:14;;;;;;;2.10;1.35;;;10.00;26.80;;;;;;4985361;28;20224;-76
2023/04/03 07:34:40;;;;;;;2.55;1.58;;;9.80;26.60;;;;;;4984602;28;20176;-69
2023/04/03 07:37:06;;;;;;;1.90;1.20;;;9.80;26.50;;;;;;4984943;28;20232;-69
2023/04/03 07:39:32;;;;;;;1.90;1.20;;;9.90;26.20;;;;;;4985907;28;20177;-69
2023/04/03 07:41:58;;;;;;;2.22;1.60;;;10.00;25.90;;;;;;4981176;28;20273;-69
2023/04/03 07:44:24;;;;;;;2.00;1.30;;;9.80;26.80;;;;;;4985430;28;20261;-69
2023/04/03 07:46:50;;;;;;;2.00;1.30;;;10.00;25.80;;;;;;4985805;28;20181;-68
2023/04/03 07:49:17;;;;;;;1.77;1.10;;;10.90;25.10;;;;;;4988081;28;20244;-69
2023/04/03 07:51:43;;;;;;;3.60;1.40;;;10.70;24.80;;;;;;4969876;28;20932;-69
2023/04/03 07:54:09;;;;;;;1.93;1.30;;;10.50;25.20;;;;;;4984421;28;20188;-69
2023/04/03 07:56:35;;;;;;;1.80;1.20;;;10.50;25.80;;;;;;4987715;28;20453;-69
2023/04/03 07:59:01;;;;;;;1.77;1.10;;;10.30;25.10;;;;;;4988348;28;20528;-68
2023/04/03 08:01:27;;;;;;;1.80;1.20;;;10.20;25.20;;;;;;4985304;28;20344;-67
2023/04/03 08:03:53;;;;;;;1.90;1.30;;;10.10;26.60;;;;;;4929957;28;1132115;-67
2023/04/03 08:06:18;;;;;;;2.33;1.70;;;10.00;25.10;;;;;;4988011;28;20191;-67
2023/04/03 08:08:44;;;;;;;1.80;1.13;;;9.90;27.40;;;;;;4988312;28;20236;-68
2023/04/03 08:11:10;;;;;;;1.93;1.37;;;10.30;26.40;;;;;;4981875;28;20178;-68
2023/04/03 08:13:36;;;;;;;1.83;1.17;;;10.20;27.60;;;;;;4984625;28;20227;-68
2023/04/03 08:16:09;;;;;;;1.80;1.17;;;10.50;24.70;;;;;;4986051;28;20185;-67
2023/04/03 08:18:34;;;;;;;1.80;1.20;;;10.40;24.80;;;;;;4984175;28;20653;-68
2023/04/03 08:21:00;;;;;;;1.90;1.27;;;10.70;25.00;;;;;;4989470;28;20426;-67
2023/04/03 08:23:26;;;;;;;3.80;1.70;;;10.10;25.50;;;;;;4986449;28;20209;-68
2023/04/03 08:25:51;;;;;;;1.80;1.10;;;10.10;25.90;;;;;;4986226;28;20189;-69
2023/04/03 08:28:17;;;;;;;2.00;1.30;;;10.50;25.10;;;;;;4990789;28;20220;-68
2023/04/03 08:30:43;;;;;;;1.80;1.20;;;10.60;24.90;;;;;;4987668;28;20178;-68
2023/04/03 08:33:09;;;;;;;1.80;1.20;;;10.30;25.10;;;;;;4988714;28;20253;-68
2023/04/03 08:35:40;;;;;;;1.80;1.20;;;10.60;24.70;;;;;;4989877;28;20437;-68
2023/04/03 08:38:06;;;;;;;1.90;1.20;;;10.80;27.30;;;;;;4987061;28;20460;-68
2023/04/03 08:40:32;;;;;;;1.80;1.20;;;10.80;25.10;;;;;;4989207;28;20467;-68
2023/04/03 08:43:13;;;;;;;1.90;1.30;;;11.00;24.90;;;;;;4989375;28;20517;-68
2023/04/03 08:45:55;;;;;;;2.00;1.30;;;11.20;24.20;;;;;;4985294;28;20209;-68
2023/04/03 08:48:29;;;;;;;2.17;1.57;;;11.30;23.90;;;;;;4988596;28;20428;-68
2023/04/03 08:51:02;;;;;;;1.90;1.27;;;10.80;24.20;;;;;;4989582;28;20440;-68
2023/04/03 08:53:32;;;;;;;1.80;1.20;;;10.90;24.60;;;;;;4980756;28;20488;-68
2023/04/03 08:56:00;;;;;;;1.80;1.10;;;10.90;24.70;;;;;;4987704;28;20436;-68
2023/04/03 08:58:29;;;;;;;1.80;1.20;;;10.90;24.30;;;;;;4988390;28;20448;-68
2023/04/03 09:01:10;;;;;;;1.80;1.10;;;10.80;23.60;;;;;;4990946;28;20472;-68
2023/04/03 09:03:39;;;;;;;2.00;1.37;;;10.60;23.90;;;;;;4972401;28;20491;-68
2023/04/03 09:06:13;;;;;;;1.90;1.30;;;10.50;24.40;;;;;;4985426;28;20792;-68
2023/04/03 09:08:48;;;;;;;1.90;1.30;;;10.70;24.50;;;;;;4989684;28;20465;-68
2023/04/03 09:11:28;;;;;;;2.00;1.30;;;10.70;24.00;;;;;;4987820;28;20440;-67
2023/04/03 09:13:56;;;;;;;2.20;1.40;;;10.70;23.50;;;;;;4988455;28;20492;-67
2023/04/03 09:16:25;;;;;;;1.80;1.13;;;10.60;23.60;;;;;;4983431;28;20481;-67
2023/04/03 09:19:03;;;;;;;1.80;1.20;;;11.10;24.20;;;;;;4980207;28;20455;-68
2023/04/03 09:21:36;;;;;;;1.90;1.30;;;11.20;23.60;;;;;;4983380;28;20472;-68
2023/04/03 09:24:06;;;;;;;1.93;1.30;;;11.30;22.40;;;;;;4982988;28;20457;-68
2023/04/03 09:26:43;;;;;;;2.17;1.50;;;11.60;22.60;;;;;;4987621;28;20413;-68
2023/04/03 09:29:18;;;;;;;1.90;1.30;;;11.90;22.70;;;;;;4982705;28;20459;-68
2023/04/03 09:31:48;;;;;;;2.07;1.50;;;11.20;22.90;;;;;;4982909;28;20440;-68
2023/04/03 09:34:27;;;;;;;2.00;1.30;;;11.30;23.00;;;;;;4988913;28;21020;-68
2023/04/03 09:36:56;;;;;;;1.80;1.13;;;11.50;22.60;;;;;;4987057;28;20855;-68
2023/04/03 09:39:28;;;;;;;1.90;1.30;;;12.30;22.50;;;;;;4986722;28;20448;-68
2023/04/03 09:42:06;;;;;;;1.90;1.30;;;11.80;23.20;;;;;;4987009;28;20516;-68
2023/04/03 09:44:37;;;;;;;2.40;1.50;;;11.30;22.90;;;;;;4990733;28;20500;-68
2023/04/03 09:47:29;;;;;;;2.83;1.50;;;11.40;23.20;;;;;;4991229;28;20394;-67
2023/04/03 09:50:17;;;;;;;1.80;1.10;;;11.60;22.40;;;;;;4989410;28;21001;-68
2023/04/03 09:52:45;;;;;;;2.20;1.43;;;11.80;22.40;;;;;;4987395;28;20848;-67
2023/04/03 09:55:31;;;;;;;1.90;1.20;;;11.10;23.10;;;;;;4990299;28;20491;-67
2023/04/03 09:58:01;;;;;;;4.17;1.70;;;10.40;25.70;;;;;;4987121;28;20437;-68
2023/04/03 10:00:32;;;;;;;1.90;1.20;;;10.80;24.00;;;;;;4992254;28;20447;-67
2023/04/03 10:02:58;;;;;;;1.83;1.13;;;10.40;24.80;;;;;;4994001;28;20479;-72
2023/04/03 10:05:42;;;;;;;1.80;1.20;;;10.80;24.50;;;;;;4996532;28;20417;-68
2023/04/03 10:08:13;;;;;;;1.90;1.20;;;11.10;24.40;;;;;;4993549;28;20432;-68
2023/04/03 10:11:04;;;;;;;1.80;1.20;;;11.30;24.00;;;;;;4993705;28;20971;-68
2023/04/03 10:13:30;;;;;;;1.87;1.20;;;11.60;24.10;;;;;;4998589;28;21005;-68
2023/04/03 10:16:04;;;;;;;1.90;1.20;;;11.50;22.90;;;;;;4994175;28;20421;-68
2023/04/03 10:18:37;;;;;;;1.90;1.30;;;11.60;23.70;;;;;;4991421;28;20181;-68
2023/04/03 10:21:27;;;;;;;2.00;1.30;;;11.40;25.20;;;;;;4989081;28;20409;-67
2023/04/03 10:24:10;;;;;;;2.00;1.37;;;11.10;23.80;;;;;;4992550;28;20447;-68
2023/04/03 10:26:41;;;;;;;1.93;1.23;;;11.70;22.80;;;;;;4993176;28;20441;-68
2023/04/03 10:29:18;;;;;;;2.20;1.40;;;11.80;22.00;;;;;;4993200;28;20803;-67
2023/04/03 10:32:17;;;;;;;2.00;1.33;;;11.10;24.40;;;;;;4983475;28;20413;-68
2023/04/03 10:34:44;;;;;;;1.90;1.30;;;11.60;24.40;;;;;;4990951;28;20821;-69
2023/04/03 10:37:54;;;;;;;1.90;1.30;;;12.00;22.30;;;;;;4993920;28;20509;-67
2023/04/03 10:40:23;;;;;;;2.27;1.60;;;11.30;21.80;;;;;;4967346;28;20446;-67
2023/04/03 10:43:04;;;;;;;2.30;1.30;;;11.20;22.40;;;;;;4952801;28;20474;-67
2023/04/03 10:45:51;;;;;;;2.00;1.30;;;11.30;22.00;;;;;;4962382;28;20533;-67
2023/04/03 10:48:25;;;;;;;1.87;1.20;;;11.00;23.00;;;;;;4964133;28;20444;-67
2023/04/03 10:51:08;;;;;;;2.00;1.37;;;11.00;23.20;;;;;;4973563;28;20848;-67
2023/04/03 10:53:57;;;;;;;1.83;1.13;;;11.10;22.10;;;;;;4955396;28;20501;-68
2023/04/03 10:56:47;;;;;;;1.90;1.20;;;10.80;23.80;;;;;;4971824;28;20954;-68
2023/04/03 10:59:25;;;;;;;2.07;1.40;;;10.80;22.00;;;;;;4971137;28;20426;-67
2023/04/03 11:02:01;;;;;;;2.00;1.30;;;11.30;23.50;;;;;;4966090;28;20446;-68
2023/04/03 11:04:33;;;;;;;1.90;1.20;;;11.80;22.50;;;;;;4961568;28;20528;-67
2023/04/03 11:07:13;;;;;;;1.90;1.23;;;12.00;21.30;;;;;;4971787;28;20505;-68
2023/04/03 11:09:45;;;;;;;2.07;1.37;;;12.00;20.30;;;;;;4970218;28;20424;-68
2023/04/03 11:12:45;;;;;;;2.00;1.30;;;11.80;20.20;;;;;;4992903;28;20477;-68
2023/04/03 11:15:15;;;;;;;2.00;1.37;;;11.30;21.70;;;;;;4992515;28;20421;-67
2023/04/03 11:17:50;;;;;;;2.10;1.50;;;11.70;20.90;;;;;;4991596;28;20417;-67
2023/04/03 11:20:27;;;;;;;1.90;1.30;;;11.50;22.20;;;;;;4992581;28;20419;-67
2023/04/03 11:23:01;;;;;;;1.83;1.20;;;11.60;21.40;;;;;;4993990;28;20895;-67
2023/04/03 11:25:29;;;;;;;2.00;1.30;;;11.60;21.50;;;;;;4994675;28;20920;-67
2023/04/03 11:28:04;;;;;;;2.10;1.37;;;12.10;21.60;;;;;;4993105;28;20877;-67
2023/04/03 11:31:00;;;;;;;2.00;1.30;;;11.90;20.50;;;;;;4993125;28;20867;-68
2023/04/03 11:33:28;;;;;;;2.00;1.30;;;11.50;21.30;;;;;;4995367;28;20472;-68
2023/04/03 11:36:17;;;;;;;2.10;1.20;;;11.40;21.30;;;;;;4990459;28;20448;-68
2023/04/03 11:38:47;;;;;;;2.00;1.33;;;11.70;21.60;;;;;;4967002;28;20459;-68
2023/04/03 11:41:13;;;;;;;1.93;1.20;;;11.20;21.40;;;;;;4992612;28;20419;-68
2023/04/03 11:44:01;;;;;;;1.90;1.13;;;11.10;22.70;;;;;;4991086;28;20467;-68
2023/04/03 11:46:53;;;;;;;2.20;1.50;;;11.00;21.20;;;;;;4989493;28;20544;-67
2023/04/03 11:49:59;;;;;;;2.00;1.30;;;11.00;22.80;;;;;;4988545;28;20426;-67
2023/04/03 11:52:40;;;;;;;1.97;1.30;;;10.80;21.70;;;;;;4991853;28;20470;-67
2023/04/03 11:55:21;;;;;;;2.00;1.20;;;10.80;22.00;;;;;;4990763;28;20439;-67
2023/04/03 11:57:46;;;;;;;2.10;1.30;;;10.70;20.90;;;;;;4992303;28;20405;-67
2023/04/03 12:00:43;;;;;;;2.03;1.30;;;11.00;21.90;;;;;;4992273;28;20428;-67
2023/04/03 12:03:24;;;;;;;2.37;1.83;;;10.00;22.80;;;;;;4990874;28;20209;-67
2023/04/03 12:06:05;;;;;;;2.30;1.50;;;10.00;22.30;;;;;;4996920;28;20870;-68
2023/04/03 12:08:33;;;;;;;2.13;1.30;;;10.30;22.10;;;;;;4992184;28;20459;-68
2023/04/03 12:11:37;;;;;;;2.13;1.40;;;10.70;23.10;;;;;;4972762;28;20937;-68
2023/04/03 12:14:05;;;;;;;1.90;1.20;;;10.70;21.00;;;;;;4975064;28;20563;-68
2023/04/03 12:16:43;;;;;;;2.00;1.23;;;11.40;21.00;;;;;;4991015;28;20499;-68
2023/04/03 12:19:15;;;;;;;2.07;1.30;;;11.30;21.10;;;;;;4998429;28;20437;-68
2023/04/03 12:21:47;;;;;;;2.10;1.30;;;10.90;20.20;;;;;;4992185;28;20413;-68
2023/04/03 12:24:16;;;;;;;2.03;1.30;;;11.00;22.00;;;;;;4981701;28;20996;-68
2023/04/03 12:26:51;;;;;;;2.00;1.30;;;11.50;21.40;;;;;;4991582;28;20460;-69
2023/04/03 12:29:45;;;;;;;2.00;1.27;;;11.60;22.00;;;;;;4990738;28;20432;-68
2023/04/03 12:32:40;;;;;;;1.87;1.20;;;11.70;20.00;;;;;;4991950;28;20535;-67
2023/04/03 12:35:19;;;;;;;1.97;1.30;;;11.80;20.10;;;;;;4991617;28;20440;-67
2023/04/03 12:37:56;;;;;;;1.90;1.20;;;11.50;20.60;;;;;;5001546;28;20487;-67
2023/04/03 12:40:27;;;;;;;2.07;1.30;;;11.80;20.10;;;;;;4992288;28;20413;-67
2023/04/03 12:43:04;;;;;;;2.00;1.30;;;12.00;20.20;;;;;;4985213;28;20951;-67
2023/04/03 12:45:41;;;;;;;2.10;1.30;;;11.30;21.30;;;;;;4988903;28;20436;-68
2023/04/03 12:48:13;;;;;;;2.10;1.40;;;11.00;20.20;;;;;;4979275;28;20433;-67
2023/04/03 12:50:41;;;;;;;2.23;1.50;;;11.20;20.60;;;;;;4987502;28;20544;-68
2023/04/03 12:53:15;;;;;;;4.03;2.03;;;10.70;20.20;;;;;;4974205;28;20488;-70
2023/04/03 12:55:40;;;;;;;1.90;1.20;;;10.30;20.60;;;;;;4982572;28;20413;-69
2023/04/03 12:58:26;;;;;;;2.10;1.37;;;10.90;20.70;;;;;;4983143;28;20954;-71
2023/04/03 13:01:04;;;;;;;2.40;1.60;;;11.30;21.00;;;;;;4988971;28;20184;-70
2023/04/03 13:03:30;;;;;;;2.00;1.37;;;12.00;20.90;;;;;;4989308;28;20476;-70
2023/04/03 13:06:03;;;;;;;2.10;1.40;;;12.00;20.20;;;;;;4992180;28;20447;-70
2023/04/03 13:08:30;;;;;;;2.00;1.30;;;11.80;19.20;;;;;;4989244;28;20984;-70